Detall de PIREP

Printer-friendly versionPDF version

[2017/05/13 08:26:00]
Flight IATA:CT2309
Pilot Number:012
Company ICAO:CAT
Aircraft Type:F50/A
PAX:50
Aircraft Registration:PAOB
Departing Airport: LIMJ
Destination Airport: LIEA
Alternate Airport:LIEO
Online: VATSIM
Route:UNIT7K UNITA L50 ELB Q125 ROMPO L5 MINKA MINK1S
Flight Level:F230
No Slew and time accel
No pause
Crash detect
Detect pilot in Cockpit between each 30 and 45 minutes
08:26 Zero fuel Weight: 38795 Lbs, Fuel Weight: 5727 Lbs
08:26 VATSIM:LIMJ 130750Z 13008KT 9999 FEW010 SCT015 19/16 Q1014
08:26 VATSIM:LIEA 130750Z 20014KT 9999 FEW013 SCT018 19/16 Q1017
08:32 Parking Brakes off
08:38 Take-off
08:38 Take off Weight: 44421 Lbs
08:38 Wind: 138º @ 007 Knots Heading: 105º
08:38 POS N44º 24´ 45´´ E008º 50´ 20´´
08:38 Flaps:2 at 117 Knots
08:38 Gear Up: 117 Knots
08:39 Flaps:1 at 120 Knots
08:39 Flaps:0 at 137 Knots
08:53 Wind:256º@021 Knots Heading: 143º Ground Speed: 209 Knots Altitude 18326 ft
09:00 TOC
09:00 Fuel Weight: 4916 Lb
09:01 TOD
09:01 Fuel Weight: 4887 Lb
09:01 TOC
09:01 Fuel Weight: 4880 Lb
09:08 Wind:254º@037 Knots Heading: 148º Ground Speed: 264 Knots Altitude 23028 ft
09:23 Wind:253º@041 Knots Heading: 203º Ground Speed: 228 Knots Altitude 23054 ft
09:38 Wind:248º@045 Knots Heading: 203º Ground Speed: 222 Knots Altitude 23070 ft
09:47 TOD
09:47 Fuel Weight: 3800 Lb
09:53 Wind:250º@028 Knots Heading: 248º Ground Speed: 205 Knots Altitude 14714 ft
10:00 Flaps:1 at 160 Knots
10:01 Flaps:2 at 138 Knots
10:01 Gear Down: 141 Knots
10:02 Flaps:3 at 146 Knots
10:04 Flaps:4 at 145 Knots
10:04 Flaps:5 at 131 Knots
10:04 Flaps:6 at 124 Knots
10:06 TouchDown:Rate -259 ft/min Speed: 107 Knots
10:07 VATSIM:LIEA 130950Z 20015KT 9999 FEW014 21/16 Q1018
10:07 Land
10:07 Wind:198º@017 Knots
10:07 Heading: 230º
10:07 Flight Duration: 01:29
10:07 Landing Weight: 42264 Lbs
10:07 POS N40º 38´ 07´´ E008º 17´ 35´´
10:10 Parking brakes on
10:10 Block to Block Duration: 01:38
10:10 Final Fuel: 3423 Lbls
10:10 Spent Fuel: 2303 Lbls
10:10 Flight Length: 314 NM
10:10 TOD Land Length: 62 NM

Exportar CSV

Powered by Drupal - Modified by Danger4k